Hlavní strana
METAR-TAF:

METAR-TAF

Letiště :

Klagenfurt, Rakousko

zeměpisná šířka: 46-39N, zeměpisná délka: 014-20E, výška: 448 m

Aktuální stav počasí

Zpráva byla vytvořena před 13 minutami, v 13:50 UTC
Východoseverovýchodní vítr 5 kt
Teplota 1°C
Vlhkost vzduchu 75%
Tlak 1015 hPa
Viditelnost 10 km a více
Skoro jasno ve výšce 2000 ft
Oblačno až skoro zataženo ve výšce 4000 ft

METAR: LOWK 241350Z 07005KT 9999 FEW020 BKN040 01/M03 Q1015 R10L/25//95 NOSIG

Čas: 15:03 (14:03 UTC)

Předpověď počasí

Zpráva byla vytvořena před 2 hodinami a 48 minutami, v 11:15 UTC
Předpověď platná od 24 v 12 UTC do 25 v 12 UTC
Východní vítr 6 kt
Viditelnost 10 km a více
Skoro jasno ve výšce 2000 ft
Polojasno ve výšce 3000 ft
Oblačno až skoro zataženo ve výšce 4500 ft
Změna
od 25 v 06 UTC do 25 v 09 UTC
Viditelnost 10 km a více
Žádná oblačnost pod 1500 m, nevyskytují se cumulonimby.

TAF: LOWK 241115Z 2412/2512 10006KT 9999 FEW020 SCT030 BKN045 TX01/2414Z TNM09/2506Z BECMG 2506/2509 CAVOK

Stav a předpovědi počasí z více než 4 000 letišť (zprávy METAR a TAF).

Červené a žluté tečky na mapě představují dostupné meteorologické stanice.

Když kurzor umístíte na tečku, zobrazí se název stanice.

Pak kliknutím zobrazíte stav a předpověď počasí.

Chcete-li změnit mapu, kliknutím na zelené tlačítko se znaménkem +mapu přiblížíte, kliknutím na zelené tlačítko se znaménkem – mapu oddálíte a kliknutím na zelené šipky přejdete na sousední mapy.


METAR-TAF: